Time;durP1;ratioP1;P1;durP2;ratioP2;P2;SDS_P1;SDS_P2;PMS_P1;PMS_P2;Temp;Humidity;BMP_temperature;BMP_pressure;BME280_temperature;BME280_humidity;BME280_pressure;Samples;Min_cycle;Max_cycle;Signal;HPM_P1;HPM_P2
2021/06/12 00:01:16;;;;;;;2.50;1.30;;;29.40;47.00;;;;;;5051614;28;20119;-60
2021/06/12 00:03:42;;;;;;;1.50;1.20;;;29.50;47.00;;;;;;5059693;28;20227;-60
2021/06/12 00:06:08;;;;;;;1.50;1.20;;;29.50;46.70;;;;;;5057329;28;20086;-62
2021/06/12 00:08:34;;;;;;;1.63;1.30;;;29.40;46.50;;;;;;5075581;28;20028;-62
2021/06/12 00:11:01;;;;;;;1.55;1.30;;;29.40;46.60;;;;;;5050387;28;20547;-62
2021/06/12 00:13:27;;;;;;;1.80;1.20;;;29.30;46.60;;;;;;5065304;28;20111;-60
2021/06/12 00:15:54;;;;;;;1.40;1.20;;;29.30;46.70;;;;;;5064183;28;20479;-62
2021/06/12 00:18:20;;;;;;;1.52;1.20;;;29.30;46.70;;;;;;5056206;28;20024;-62
2021/06/12 00:20:46;;;;;;;1.83;1.40;;;29.30;46.80;;;;;;5049922;28;20591;-62
2021/06/12 00:23:12;;;;;;;2.08;1.30;;;29.30;46.80;;;;;;5052089;28;20017;-61
2021/06/12 00:25:40;;;;;;;1.70;1.20;;;29.20;46.80;;;;;;5046563;28;20024;-62
2021/06/12 00:28:06;;;;;;;2.10;1.40;;;29.20;46.80;;;;;;5061162;28;20029;-62
2021/06/12 00:30:32;;;;;;;1.77;1.30;;;29.20;46.80;;;;;;5064085;28;20105;-62
2021/06/12 00:32:58;;;;;;;1.67;1.33;;;29.10;46.80;;;;;;5059691;28;20044;-62
2021/06/12 00:35:25;;;;;;;1.92;1.30;;;29.10;46.80;;;;;;5050391;28;20379;-61
2021/06/12 00:37:51;;;;;;;1.45;1.20;;;29.10;46.80;;;;;;5049916;28;20124;-62
2021/06/12 00:40:18;;;;;;;1.50;1.20;;;29.10;47.40;;;;;;5055684;28;20095;-60
2021/06/12 00:42:45;;;;;;;1.38;1.20;;;29.00;47.30;;;;;;5057236;28;20040;-60
2021/06/12 00:45:17;;;;;;;1.73;1.25;;;29.00;46.80;;;;;;5051312;28;20035;-60
2021/06/12 00:47:43;;;;;;;1.63;1.23;;;29.00;46.80;;;;;;5055871;28;20094;-60
2021/06/12 00:50:10;;;;;;;1.50;1.20;;;29.00;46.80;;;;;;5061818;28;20738;-60
2021/06/12 00:52:37;;;;;;;1.70;1.30;;;29.00;46.90;;;;;;5054123;28;20025;-60
2021/06/12 00:55:04;;;;;;;1.85;1.30;;;28.90;46.80;;;;;;5056002;28;20021;-61
2021/06/12 00:57:31;;;;;;;1.80;1.20;;;28.90;46.90;;;;;;5061528;28;20096;-60
2021/06/12 00:59:56;;;;;;;1.80;1.30;;;28.90;46.90;;;;;;5049352;28;20028;-61
2021/06/12 01:02:22;;;;;;;2.65;1.30;;;28.90;46.90;;;;;;5058681;28;20040;-61
2021/06/12 01:04:48;;;;;;;1.58;1.30;;;28.90;46.90;;;;;;5053947;28;20066;-60
2021/06/12 01:07:13;;;;;;;1.48;1.20;;;28.90;46.90;;;;;;5058738;28;20055;-60
2021/06/12 01:09:39;;;;;;;1.35;1.20;;;28.80;46.90;;;;;;5054204;28;20071;-62
2021/06/12 01:12:17;;;;;;;1.38;1.23;;;28.80;46.90;;;;;;5047109;28;21534;-61
2021/06/12 01:14:46;;;;;;;2.33;1.38;;;28.80;46.90;;;;;;5055990;28;20024;-61
2021/06/12 01:17:33;;;;;;;1.42;1.20;;;28.80;47.00;;;;;;5046463;28;20017;-60
2021/06/12 01:20:26;;;;;;;1.55;1.30;;;28.80;47.00;;;;;;5058997;28;20464;-61
2021/06/12 01:23:10;;;;;;;1.30;1.20;;;28.80;47.00;;;;;;5048802;28;20040;-60
2021/06/12 01:26:05;;;;;;;1.85;1.40;;;28.70;46.90;;;;;;5050960;28;20029;-61
2021/06/12 01:28:49;;;;;;;1.98;1.38;;;28.70;47.00;;;;;;5064325;28;20547;-61
2021/06/12 01:31:18;;;;;;;1.27;1.17;;;28.70;47.00;;;;;;5064278;28;20068;-60
2021/06/12 01:33:47;;;;;;;1.80;1.40;;;28.70;47.00;;;;;;5068622;28;20046;-59
2021/06/12 01:36:13;;;;;;;1.25;1.10;;;28.60;47.00;;;;;;5056458;28;20040;-60
2021/06/12 01:38:44;;;;;;;1.48;1.20;;;28.60;47.00;;;;;;5051098;28;20101;-60
2021/06/12 01:41:11;;;;;;;1.20;1.10;;;28.60;47.00;;;;;;5057957;28;20029;-62
2021/06/12 01:43:39;;;;;;;1.20;1.10;;;28.60;47.00;;;;;;5055684;28;20029;-63
2021/06/12 01:46:08;;;;;;;2.22;1.35;;;28.60;47.10;;;;;;5065100;28;20502;-60
2021/06/12 01:48:34;;;;;;;1.40;1.10;;;28.50;47.00;;;;;;5056217;28;20147;-60
2021/06/12 01:51:03;;;;;;;1.90;1.30;;;28.50;47.10;;;;;;5061577;28;20278;-61
2021/06/12 01:53:33;;;;;;;1.35;1.15;;;28.50;47.10;;;;;;5065950;28;20040;-61
2021/06/12 01:56:08;;;;;;;;;;;28.50;47.10;;;;;;5055912;28;20033;-60
2021/06/12 01:58:37;;;;;;;1.52;1.30;;;28.50;47.10;;;;;;5063217;28;19942;-60
2021/06/12 02:01:05;;;;;;;1.83;1.20;;;28.40;47.10;;;;;;5059400;28;20413;-60
2021/06/12 02:03:32;;;;;;;1.42;1.20;;;28.40;47.10;;;;;;5049785;28;20124;-61
2021/06/12 02:05:59;;;;;;;1.50;1.23;;;28.40;47.10;;;;;;5049211;28;20478;-61
2021/06/12 02:08:26;;;;;;;1.38;1.15;;;28.40;47.10;;;;;;5063788;28;20032;-60
2021/06/12 02:10:52;;;;;;;1.48;1.30;;;28.40;47.10;;;;;;5052988;28;20040;-60
2021/06/12 02:13:21;;;;;;;1.95;1.50;;;28.40;47.10;;;;;;5054720;28;20078;-60
2021/06/12 02:15:51;;;;;;;1.90;1.45;;;28.40;47.20;;;;;;5064978;28;20028;-60
2021/06/12 02:18:18;;;;;;;1.90;1.60;;;28.40;47.10;;;;;;5057805;28;20033;-60
2021/06/12 02:20:45;;;;;;;1.80;1.50;;;28.30;47.10;;;;;;5066722;28;20021;-59
2021/06/12 02:23:11;;;;;;;1.70;1.33;;;28.30;47.10;;;;;;5069160;28;20406;-61
2021/06/12 02:25:37;;;;;;;1.52;1.30;;;28.30;47.10;;;;;;5064054;28;20059;-61
2021/06/12 02:28:10;;;;;;;2.13;1.45;;;28.30;47.10;;;;;;5056886;28;20440;-61
2021/06/12 02:30:44;;;;;;;2.05;1.55;;;28.30;47.20;;;;;;5064751;28;20056;-61
2021/06/12 02:33:14;;;;;;;1.70;1.45;;;28.30;47.20;;;;;;5083083;28;20068;-61
2021/06/12 02:35:39;;;;;;;1.60;1.40;;;28.30;47.30;;;;;;5050462;28;20047;-61
2021/06/12 02:38:05;;;;;;;2.63;1.60;;;28.20;47.10;;;;;;5061217;28;20067;-60
2021/06/12 02:40:32;;;;;;;1.60;1.40;;;28.20;47.10;;;;;;5059422;28;20087;-61
2021/06/12 02:42:57;;;;;;;2.10;1.63;;;28.20;47.20;;;;;;5055121;28;20483;-62
2021/06/12 02:45:25;;;;;;;2.38;1.48;;;28.20;47.20;;;;;;5053268;28;20032;-61
2021/06/12 02:47:56;;;;;;;1.70;1.30;;;28.20;47.20;;;;;;5049488;28;20074;-61
2021/06/12 02:50:26;;;;;;;1.50;1.30;;;28.20;47.20;;;;;;5056742;28;20055;-61
2021/06/12 02:52:54;;;;;;;2.78;1.60;;;28.20;47.20;;;;;;5065317;28;20035;-61
2021/06/12 02:55:22;;;;;;;1.75;1.45;;;28.20;47.30;;;;;;5062436;28;20028;-61
2021/06/12 02:57:49;;;;;;;1.80;1.55;;;28.10;47.20;;;;;;5064751;28;20142;-60
2021/06/12 03:00:20;;;;;;;1.50;1.40;;;28.10;47.20;;;;;;5053557;28;20036;-62
2021/06/12 03:02:46;;;;;;;1.73;1.55;;;28.10;47.20;;;;;;5061654;28;20116;-62
2021/06/12 03:05:19;;;;;;;1.98;1.60;;;28.10;47.30;;;;;;5058514;28;20063;-62
2021/06/12 03:07:48;;;;;;;2.30;1.70;;;28.10;47.30;;;;;;5054646;28;20329;-62
2021/06/12 03:10:15;;;;;;;1.77;1.48;;;28.00;47.20;;;;;;5054452;28;20379;-59
2021/06/12 03:12:42;;;;;;;2.00;1.50;;;28.10;47.30;;;;;;5057878;28;20053;-63
2021/06/12 03:15:09;;;;;;;1.92;1.60;;;28.00;47.20;;;;;;5055721;28;20059;-62
2021/06/12 03:17:36;;;;;;;1.80;1.58;;;28.00;47.30;;;;;;5047584;28;20395;-60
2021/06/12 03:20:06;;;;;;;2.35;1.70;;;28.00;47.30;;;;;;5052441;28;20329;-60
2021/06/12 03:22:36;;;;;;;2.10;1.50;;;28.00;47.30;;;;;;5058569;28;20431;-61
2021/06/12 03:25:05;;;;;;;1.77;1.55;;;28.00;47.30;;;;;;5056834;28;20147;-60
2021/06/12 03:27:31;;;;;;;2.10;1.80;;;28.00;47.30;;;;;;5051092;28;20021;-60
2021/06/12 03:29:57;;;;;;;2.45;1.80;;;28.00;47.30;;;;;;5048270;28;20048;-60
2021/06/12 03:32:24;;;;;;;2.10;1.73;;;27.90;47.30;;;;;;5052628;28;20064;-60
2021/06/12 03:34:50;;;;;;;2.25;1.90;;;28.00;47.30;;;;;;5065236;28;20044;-61
2021/06/12 03:37:17;;;;;;;2.10;1.80;;;27.90;47.30;;;;;;5047056;28;20029;-60
2021/06/12 03:39:42;;;;;;;2.30;1.73;;;27.90;47.30;;;;;;5051257;28;20059;-60
2021/06/12 03:42:09;;;;;;;2.20;1.70;;;27.90;47.30;;;;;;5063131;28;20127;-60
2021/06/12 03:44:37;;;;;;;1.90;1.60;;;27.90;47.30;;;;;;5047116;28;20387;-61
2021/06/12 03:47:04;;;;;;;2.08;1.60;;;27.90;47.30;;;;;;5048883;28;20033;-60
2021/06/12 03:49:30;;;;;;;3.10;1.90;;;27.90;47.30;;;;;;5061100;28;20029;-60
2021/06/12 03:51:56;;;;;;;2.70;2.00;;;27.90;47.30;;;;;;5060470;28;20036;-60
2021/06/12 03:54:22;;;;;;;2.05;1.70;;;27.90;47.40;;;;;;5046842;28;20571;-60
2021/06/12 03:56:48;;;;;;;2.25;1.80;;;27.80;47.30;;;;;;5056075;28;20563;-59
2021/06/12 03:59:14;;;;;;;2.35;1.80;;;27.80;47.30;;;;;;5063774;28;20058;-60
2021/06/12 04:01:41;;;;;;;2.10;1.70;;;27.80;47.30;;;;;;5057838;28;20045;-60
2021/06/12 04:04:07;;;;;;;2.13;1.70;;;27.80;47.30;;;;;;5057861;28;20443;-61
2021/06/12 04:06:32;;;;;;;2.50;1.77;;;27.80;47.30;;;;;;5046669;28;20025;-60
2021/06/12 04:08:58;;;;;;;1.88;1.67;;;27.80;47.30;;;;;;5066242;28;20037;-60
2021/06/12 04:11:23;;;;;;;2.17;1.80;;;27.80;47.30;;;;;;5062026;28;20064;-60
2021/06/12 04:13:49;;;;;;;2.00;1.70;;;27.80;47.30;;;;;;5064089;28;20028;-60
2021/06/12 04:16:15;;;;;;;1.80;1.60;;;27.80;47.30;;;;;;5063637;28;20048;-60
2021/06/12 04:18:40;;;;;;;2.38;1.80;;;27.80;47.40;;;;;;5047098;28;20036;-61
2021/06/12 04:21:06;;;;;;;2.58;1.70;;;27.70;47.30;;;;;;5049032;28;20523;-60
2021/06/12 04:23:32;;;;;;;2.00;1.80;;;27.70;47.30;;;;;;5053813;28;20024;-60
2021/06/12 04:25:58;;;;;;;2.63;1.90;;;27.70;47.30;;;;;;5064043;28;20082;-61
2021/06/12 04:28:24;;;;;;;2.28;1.95;;;27.70;47.30;;;;;;5065444;28;20028;-60
2021/06/12 04:30:50;;;;;;;2.10;1.63;;;27.70;47.90;;;;;;5049301;28;20120;-61
2021/06/12 04:33:16;;;;;;;2.00;1.70;;;27.70;47.40;;;;;;5057020;28;22132;-61
2021/06/12 04:35:42;;;;;;;2.00;1.67;;;27.70;47.40;;;;;;5047139;28;20104;-62
2021/06/12 04:38:08;;;;;;;2.20;1.75;;;27.70;47.40;;;;;;5063624;28;20432;-62
2021/06/12 04:40:35;;;;;;;2.20;1.80;;;27.70;47.40;;;;;;5052017;28;20109;-61
2021/06/12 04:43:03;;;;;;;2.40;1.88;;;27.70;47.40;;;;;;5050443;28;20042;-62
2021/06/12 04:45:29;;;;;;;2.05;1.80;;;27.70;47.40;;;;;;5045948;28;20017;-62
2021/06/12 04:47:55;;;;;;;1.98;1.70;;;27.60;47.40;;;;;;5055223;28;20040;-62
2021/06/12 04:50:21;;;;;;;2.30;1.90;;;27.60;47.30;;;;;;5047681;28;20037;-62
2021/06/12 04:52:46;;;;;;;4.50;4.10;;;27.60;47.20;;;;;;5054103;28;20043;-61
2021/06/12 04:55:13;;;;;;;7.82;5.70;;;27.50;45.00;;;;;;5049736;28;20028;-62
2021/06/12 04:57:39;;;;;;;6.75;5.30;;;27.20;44.40;;;;;;5057245;28;20032;-62
2021/06/12 05:00:10;;;;;;;6.07;5.47;;;26.90;45.00;;;;;;5051281;28;20223;-61
2021/06/12 05:02:35;;;;;;;6.43;5.82;;;26.60;45.30;;;;;;5062667;28;21820;-62
2021/06/12 05:05:01;;;;;;;6.00;5.50;;;26.50;45.70;;;;;;5061714;28;20058;-61
2021/06/12 05:07:27;;;;;;;7.90;5.90;;;26.40;45.80;;;;;;5068387;28;20136;-62
2021/06/12 05:09:53;;;;;;;6.70;5.55;;;26.10;46.10;;;;;;5069131;28;20052;-61
2021/06/12 05:12:19;;;;;;;6.75;6.15;;;26.10;46.60;;;;;;5069376;28;20467;-62
2021/06/12 05:14:47;;;;;;;6.97;5.97;;;25.90;46.70;;;;;;5067295;28;20124;-62
2021/06/12 05:17:15;;;;;;;7.20;6.50;;;25.70;47.00;;;;;;5051223;28;20021;-61
2021/06/12 05:19:41;;;;;;;7.95;6.45;;;25.50;47.30;;;;;;5063707;28;20047;-62
2021/06/12 05:22:07;;;;;;;7.10;6.40;;;25.30;47.90;;;;;;5053102;28;20029;-61
2021/06/12 05:24:35;;;;;;;7.80;6.30;;;25.20;48.10;;;;;;5061482;28;20095;-61
2021/06/12 05:27:00;;;;;;;7.30;6.40;;;25.10;48.10;;;;;;5056358;28;20044;-61
2021/06/12 05:29:26;;;;;;;6.95;6.25;;;25.00;48.40;;;;;;5055965;28;20028;-61
2021/06/12 05:31:52;;;;;;;6.90;6.00;;;25.00;48.50;;;;;;5063003;28;20182;-62
2021/06/12 05:34:18;;;;;;;6.40;5.65;;;24.90;48.60;;;;;;5063051;28;20033;-61
2021/06/12 05:36:43;;;;;;;6.82;5.75;;;24.90;48.80;;;;;;5048973;28;20155;-61
2021/06/12 05:39:10;;;;;;;6.95;6.25;;;24.90;49.00;;;;;;5050637;28;20048;-61
2021/06/12 05:41:38;;;;;;;7.80;6.60;;;24.90;49.10;;;;;;5058115;28;20021;-61
2021/06/12 05:44:05;;;;;;;6.87;6.23;;;24.90;49.30;;;;;;5067692;28;20107;-61
2021/06/12 05:46:30;;;;;;;6.50;5.90;;;24.80;49.50;;;;;;5067238;28;20348;-62
2021/06/12 05:48:56;;;;;;;6.82;6.03;;;24.80;49.40;;;;;;5060958;28;20036;-61
2021/06/12 05:51:22;;;;;;;6.50;5.90;;;24.80;49.40;;;;;;5058998;28;20125;-62
2021/06/12 05:53:47;;;;;;;6.90;6.20;;;24.80;49.20;;;;;;5049421;28;20037;-62
2021/06/12 05:56:13;;;;;;;6.80;6.10;;;24.80;49.10;;;;;;5057733;28;20032;-62
2021/06/12 05:58:39;;;;;;;7.28;6.53;;;24.80;49.30;;;;;;5055586;28;20520;-61
2021/06/12 06:01:06;;;;;;;7.65;6.20;;;24.70;49.40;;;;;;5053168;28;20033;-62
2021/06/12 06:03:32;;;;;;;6.75;5.50;;;24.70;49.50;;;;;;5049594;28;20102;-62
2021/06/12 06:05:57;;;;;;;6.75;5.93;;;24.80;49.40;;;;;;5053677;28;20436;-63
2021/06/12 06:08:24;;;;;;;7.00;6.40;;;24.80;49.40;;;;;;5055527;28;20033;-62
2021/06/12 06:10:49;;;;;;;7.72;6.40;;;24.80;49.40;;;;;;5066843;28;20024;-62
2021/06/12 06:13:15;;;;;;;6.88;5.70;;;24.60;49.50;;;;;;5057471;28;20033;-62
2021/06/12 06:15:40;;;;;;;6.00;5.40;;;24.60;49.70;;;;;;5062514;28;20037;-61
2021/06/12 06:18:06;;;;;;;7.65;6.18;;;24.70;49.80;;;;;;5063929;28;20028;-62
2021/06/12 06:20:32;;;;;;;5.78;5.18;;;24.70;49.80;;;;;;5048118;28;20039;-62
2021/06/12 06:22:57;;;;;;;4.93;4.45;;;24.70;49.80;;;;;;5057539;28;20082;-61
2021/06/12 06:25:23;;;;;;;5.50;4.50;;;24.80;49.60;;;;;;5053897;28;20431;-61
2021/06/12 06:27:49;;;;;;;4.72;4.03;;;24.90;49.40;;;;;;5060415;28;20025;-62
2021/06/12 06:30:16;;;;;;;4.97;4.00;;;24.90;49.20;;;;;;5052853;28;20048;-61
2021/06/12 06:32:42;;;;;;;5.85;3.75;;;25.00;49.10;;;;;;5060361;28;20097;-61
2021/06/12 06:35:08;;;;;;;4.65;3.70;;;25.10;49.00;;;;;;5062939;28;20471;-61
2021/06/12 06:37:33;;;;;;;4.22;3.83;;;25.10;48.90;;;;;;5059399;28;20862;-61
2021/06/12 06:39:59;;;;;;;3.97;3.50;;;25.10;48.80;;;;;;5058134;28;20126;-62
2021/06/12 06:42:24;;;;;;;4.15;3.50;;;25.10;48.80;;;;;;5057951;28;20029;-62
2021/06/12 06:44:50;;;;;;;4.32;3.50;;;25.20;49.30;;;;;;5045039;28;20023;-62
2021/06/12 06:47:16;;;;;;;4.00;3.60;;;25.20;48.70;;;;;;5057544;28;20082;-63
2021/06/12 06:49:41;;;;;;;3.83;3.25;;;25.20;48.60;;;;;;5047562;28;20045;-62
2021/06/12 06:52:07;;;;;;;3.90;3.50;;;25.20;49.10;;;;;;5048611;28;20119;-62
2021/06/12 06:54:33;;;;;;;3.78;3.30;;;25.30;48.60;;;;;;5062799;28;20377;-61
2021/06/12 06:56:59;;;;;;;4.38;3.30;;;25.30;48.60;;;;;;5052725;28;20450;-61
2021/06/12 06:59:24;;;;;;;4.13;3.42;;;25.30;48.50;;;;;;5058235;28;20473;-61
2021/06/12 07:01:50;;;;;;;4.63;3.10;;;25.30;48.50;;;;;;5060063;28;20124;-61
2021/06/12 07:04:16;;;;;;;3.85;3.15;;;25.30;48.50;;;;;;5051870;28;20024;-62
2021/06/12 07:06:41;;;;;;;3.83;3.38;;;25.40;48.50;;;;;;5053839;28;20021;-61
2021/06/12 07:09:07;;;;;;;3.95;3.10;;;25.40;48.50;;;;;;5046298;28;20835;-61
2021/06/12 07:11:33;;;;;;;3.92;3.13;;;25.40;48.50;;;;;;5063709;28;20032;-62
2021/06/12 07:13:59;;;;;;;4.63;3.00;;;25.40;48.50;;;;;;5064313;28;20032;-62
2021/06/12 07:16:24;;;;;;;3.63;2.75;;;25.40;48.40;;;;;;5056736;28;20812;-62
2021/06/12 07:18:50;;;;;;;3.83;3.20;;;25.40;48.40;;;;;;5065612;28;20529;-62
2021/06/12 07:21:15;;;;;;;3.13;2.80;;;25.40;48.40;;;;;;5064935;28;20028;-63
2021/06/12 07:23:41;;;;;;;3.28;2.97;;;25.40;48.40;;;;;;5061602;28;20477;-62
2021/06/12 07:26:07;;;;;;;4.28;3.05;;;25.40;48.40;;;;;;5047272;28;20086;-63
2021/06/12 07:28:33;;;;;;;3.83;3.05;;;25.40;48.40;;;;;;5061864;28;20094;-62
2021/06/12 07:30:58;;;;;;;3.85;3.15;;;25.50;48.40;;;;;;5064116;28;20033;-62
2021/06/12 07:33:24;;;;;;;3.30;3.00;;;25.50;48.40;;;;;;5058804;28;20821;-62
2021/06/12 07:35:49;;;;;;;3.75;3.03;;;25.50;48.40;;;;;;5045072;28;20037;-62
2021/06/12 07:38:15;;;;;;;3.95;2.95;;;25.50;48.40;;;;;;5062890;28;20032;-62
2021/06/12 07:40:43;;;;;;;3.22;2.92;;;25.50;48.40;;;;;;5063512;28;20031;-63
2021/06/12 07:43:08;;;;;;;3.30;3.00;;;25.50;48.40;;;;;;5064869;28;20024;-62
2021/06/12 07:45:34;;;;;;;3.33;2.80;;;25.50;48.40;;;;;;5062234;28;20040;-63
2021/06/12 07:48:00;;;;;;;3.20;2.80;;;25.60;48.50;;;;;;5050872;28;20039;-62
2021/06/12 07:50:26;;;;;;;3.25;2.85;;;25.50;48.30;;;;;;5057541;28;20063;-62
2021/06/12 07:52:52;;;;;;;3.45;2.78;;;25.60;48.40;;;;;;5064066;28;20498;-61
2021/06/12 07:55:18;;;;;;;4.00;2.75;;;25.60;48.40;;;;;;5064211;28;20127;-62
2021/06/12 07:57:44;;;;;;;3.00;2.70;;;25.60;48.40;;;;;;5060407;28;20098;-62
2021/06/12 08:00:10;;;;;;;3.90;2.83;;;25.60;48.40;;;;;;5043565;28;20044;-61
2021/06/12 08:02:36;;;;;;;3.92;2.78;;;25.60;48.40;;;;;;5058183;28;20864;-62
2021/06/12 08:05:04;;;;;;;3.25;2.70;;;25.60;48.40;;;;;;5047786;28;20027;-62
2021/06/12 08:07:29;;;;;;;3.13;2.83;;;25.60;48.30;;;;;;5044761;28;20032;-62
2021/06/12 08:09:55;;;;;;;3.40;3.00;;;25.60;48.30;;;;;;5056109;28;20041;-62
2021/06/12 08:12:21;;;;;;;3.95;2.92;;;25.60;48.40;;;;;;5057798;28;20044;-62
2021/06/12 08:14:50;;;;;;;3.42;3.08;;;25.70;48.40;;;;;;5056486;28;20047;-62
2021/06/12 08:17:16;;;;;;;3.35;3.00;;;25.70;48.40;;;;;;5062391;28;20367;-62
2021/06/12 08:19:42;;;;;;;4.35;2.97;;;25.70;48.40;;;;;;5053124;28;20037;-62
2021/06/12 08:22:07;;;;;;;3.17;2.72;;;25.60;48.30;;;;;;5045196;28;20051;-61
2021/06/12 08:24:35;;;;;;;2.88;2.58;;;25.70;48.40;;;;;;5056237;28;20055;-62
2021/06/12 08:27:00;;;;;;;3.60;3.00;;;25.70;48.30;;;;;;5051360;28;20493;-62
2021/06/12 08:29:26;;;;;;;3.20;2.90;;;25.70;48.40;;;;;;5050476;28;20021;-62
2021/06/12 08:31:52;;;;;;;3.30;2.80;;;25.70;48.40;;;;;;5059418;28;20048;-62
2021/06/12 08:34:17;;;;;;;3.50;3.00;;;25.70;48.40;;;;;;5063288;28;20025;-62
2021/06/12 08:36:43;;;;;;;3.50;2.85;;;25.70;48.40;;;;;;5063143;28;20024;-62
2021/06/12 08:39:09;;;;;;;3.00;2.70;;;25.70;48.30;;;;;;5060656;28;20067;-62
2021/06/12 08:41:34;;;;;;;3.95;2.67;;;25.70;48.30;;;;;;5061047;28;20061;-62
2021/06/12 08:44:01;;;;;;;3.17;2.65;;;25.70;48.30;;;;;;5050098;28;20096;-62
2021/06/12 08:46:28;;;;;;;3.60;2.60;;;25.70;48.30;;;;;;5054224;28;20140;-62
2021/06/12 08:48:54;;;;;;;3.20;2.60;;;25.70;48.30;;;;;;5067681;28;20344;-62
2021/06/12 08:51:20;;;;;;;3.30;2.83;;;25.80;48.40;;;;;;5061878;28;20139;-62
2021/06/12 08:53:47;;;;;;;3.42;2.90;;;25.80;48.40;;;;;;5069471;28;20043;-61
2021/06/12 08:56:13;;;;;;;3.47;2.95;;;25.80;48.30;;;;;;5078341;28;20056;-61
2021/06/12 08:58:39;;;;;;;3.20;2.40;;;25.80;48.30;;;;;;5057791;28;20454;-61
2021/06/12 09:01:05;;;;;;;3.00;2.70;;;25.80;48.30;;;;;;5064395;28;20044;-62
2021/06/12 09:03:32;;;;;;;3.30;2.60;;;25.80;48.30;;;;;;5062572;28;20119;-61
2021/06/12 09:05:59;;;;;;;3.03;2.58;;;25.80;48.30;;;;;;5066605;28;20033;-62
2021/06/12 09:08:33;;;;;;;3.25;2.70;;;25.80;48.40;;;;;;5058818;28;20394;-62
2021/06/12 09:11:03;;;;;;;3.30;2.80;;;25.80;48.40;;;;;;5069862;28;20099;-62
2021/06/12 09:13:47;;;;;;;3.33;2.97;;;25.80;48.30;;;;;;5061247;28;20064;-62
2021/06/12 09:16:24;;;;;;;2.85;2.55;;;25.80;48.40;;;;;;5049818;28;20048;-62
2021/06/12 09:18:50;;;;;;;3.08;2.78;;;25.80;48.30;;;;;;5064050;28;20151;-61
2021/06/12 09:21:30;;;;;;;3.20;2.85;;;25.90;48.40;;;;;;5069116;28;20135;-62
2021/06/12 09:23:58;;;;;;;3.22;2.88;;;25.80;48.80;;;;;;5049731;28;20021;-62
2021/06/12 09:26:48;;;;;;;3.10;2.80;;;25.90;48.40;;;;;;5061803;28;20116;-62
2021/06/12 09:29:18;;;;;;;2.83;2.50;;;25.80;48.30;;;;;;5061299;28;20363;-61
2021/06/12 09:31:49;;;;;;;3.42;2.90;;;25.90;48.40;;;;;;5066915;28;20109;-61
2021/06/12 09:34:20;;;;;;;2.90;2.47;;;25.90;48.40;;;;;;5055464;28;20035;-61
2021/06/12 09:36:46;;;;;;;3.03;2.70;;;25.90;48.40;;;;;;5059363;28;20107;-60
2021/06/12 09:39:18;;;;;;;2.97;2.67;;;25.90;48.40;;;;;;5051333;28;20422;-61
2021/06/12 09:41:55;;;;;;;3.00;2.70;;;25.90;48.40;;;;;;5048154;28;20032;-61
2021/06/12 09:44:31;;;;;;;2.80;2.50;;;25.90;48.40;;;;;;5054101;28;20023;-62
2021/06/12 09:46:57;;;;;;;3.28;2.70;;;25.90;48.40;;;;;;5053433;28;20028;-61
2021/06/12 09:49:33;;;;;;;3.60;2.72;;;25.90;48.40;;;;;;5057146;28;20446;-61
2021/06/12 09:52:06;;;;;;;3.20;2.63;;;25.90;48.40;;;;;;5062975;28;20104;-62
2021/06/12 09:54:37;;;;;;;3.17;2.55;;;25.90;48.40;;;;;;5053499;28;20068;-62
2021/06/12 09:57:04;;;;;;;3.38;2.75;;;26.00;48.40;;;;;;5061098;28;20348;-61
2021/06/12 09:59:38;;;;;;;3.05;2.60;;;25.90;48.40;;;;;;5063252;28;20672;-62
2021/06/12 10:02:04;;;;;;;3.20;2.60;;;25.90;48.90;;;;;;5064760;28;20024;-62
2021/06/12 10:04:30;;;;;;;2.88;2.50;;;25.90;48.40;;;;;;5059147;28;20055;-62
2021/06/12 10:06:56;;;;;;;2.85;2.40;;;25.90;48.40;;;;;;5065534;28;20047;-63
2021/06/12 10:09:24;;;;;;;4.00;2.67;;;26.00;48.40;;;;;;5052355;28;20072;-61
2021/06/12 10:11:50;;;;;;;2.78;2.40;;;26.00;48.40;;;;;;5059202;28;20048;-61
2021/06/12 10:14:17;;;;;;;3.38;2.78;;;26.00;48.50;;;;;;5063693;28;20045;-62
2021/06/12 10:16:44;;;;;;;2.90;2.50;;;26.00;48.50;;;;;;5056718;28;20390;-61
2021/06/12 10:19:13;;;;;;;3.42;2.80;;;26.00;48.50;;;;;;5063666;28;20033;-61
2021/06/12 10:21:39;;;;;;;3.05;2.72;;;26.00;48.60;;;;;;5064760;28;20025;-63
2021/06/12 10:24:09;;;;;;;3.00;2.50;;;26.00;48.60;;;;;;5057492;28;20038;-62
2021/06/12 10:26:35;;;;;;;2.90;2.60;;;26.00;48.50;;;;;;5054223;28;20032;-61
2021/06/12 10:29:02;;;;;;;3.17;2.40;;;26.00;48.50;;;;;;5066981;28;20102;-62
2021/06/12 10:31:33;;;;;;;2.80;2.50;;;26.00;48.50;;;;;;5052757;28;20043;-62
2021/06/12 10:33:59;;;;;;;3.10;2.65;;;26.00;48.50;;;;;;5051718;28;20448;-62
2021/06/12 10:36:30;;;;;;;3.17;2.55;;;26.00;48.50;;;;;;5052430;28;20024;-62
2021/06/12 10:38:57;;;;;;;3.08;2.50;;;26.00;48.50;;;;;;5065786;28;20020;-61
2021/06/12 10:41:26;;;;;;;3.00;2.70;;;26.00;48.50;;;;;;5060531;28;20382;-61
2021/06/12 10:43:54;;;;;;;3.00;2.50;;;26.00;48.50;;;;;;5063389;28;20481;-61
2021/06/12 10:46:25;;;;;;;2.83;2.40;;;26.00;48.50;;;;;;5058771;28;20051;-63
2021/06/12 10:48:55;;;;;;;3.00;2.70;;;26.10;48.60;;;;;;5057576;28;20447;-61
2021/06/12 10:51:26;;;;;;;2.60;2.40;;;26.10;48.60;;;;;;5058476;28;20442;-62
2021/06/12 10:54:07;;;;;;;3.10;2.35;;;26.10;48.50;;;;;;5049115;28;20036;-61
2021/06/12 10:56:35;;;;;;;2.80;2.50;;;26.10;48.60;;;;;;5053328;28;20544;-62
2021/06/12 10:59:02;;;;;;;2.70;2.33;;;26.10;48.50;;;;;;5051645;28;20036;-62
2021/06/12 11:01:27;;;;;;;2.88;2.40;;;26.10;48.50;;;;;;5047559;28;20032;-61
2021/06/12 11:04:16;;;;;;;2.50;2.13;;;26.10;48.50;;;;;;5061348;28;20048;-61
2021/06/12 11:06:51;;;;;;;3.27;2.40;;;26.10;48.50;;;;;;5056584;28;20435;-62
2021/06/12 11:09:29;;;;;;;3.03;2.22;;;26.10;48.60;;;;;;5064949;28;20874;-60
2021/06/12 11:11:57;;;;;;;2.95;2.47;;;26.10;48.50;;;;;;5052505;28;20052;-61
2021/06/12 11:14:23;;;;;;;2.80;2.50;;;26.10;48.50;;;;;;5061076;28;20036;-60
2021/06/12 11:17:10;;;;;;;2.85;2.42;;;26.10;48.50;;;;;;5061727;28;20040;-59
2021/06/12 11:20:07;;;;;;;3.10;2.58;;;26.10;48.50;;;;;;5057838;28;20333;-61
2021/06/12 11:22:57;;;;;;;3.53;2.30;;;26.10;48.50;;;;;;5054090;28;20831;-60
2021/06/12 11:25:24;;;;;;;2.78;2.40;;;26.10;48.60;;;;;;5055480;28;20129;-61
2021/06/12 11:27:51;;;;;;;3.00;2.50;;;26.10;48.50;;;;;;5059197;28;20028;-60
2021/06/12 11:30:17;;;;;;;2.70;2.30;;;26.10;48.50;;;;;;5058677;28;20035;-60
2021/06/12 11:32:46;;;;;;;2.90;2.40;;;26.10;48.50;;;;;;5060279;28;20033;-61
2021/06/12 11:35:12;;;;;;;2.75;2.40;;;26.10;48.50;;;;;;5059632;28;20029;-60
2021/06/12 11:37:49;;;;;;;3.28;2.40;;;26.10;48.50;;;;;;5056181;28;20035;-59
2021/06/12 11:40:21;;;;;;;2.88;2.47;;;26.10;48.40;;;;;;5059608;28;20185;-61
2021/06/12 11:42:49;;;;;;;2.70;2.20;;;26.20;48.50;;;;;;5043548;28;20040;-60
2021/06/12 11:45:18;;;;;;;2.72;2.30;;;26.20;49.00;;;;;;5045684;28;20031;-61
2021/06/12 11:47:44;;;;;;;2.50;1.92;;;26.20;48.40;;;;;;5055795;28;20130;-61
2021/06/12 11:50:10;;;;;;;2.70;2.20;;;26.20;48.40;;;;;;5051561;28;20032;-61
2021/06/12 11:52:40;;;;;;;2.70;2.30;;;26.20;48.40;;;;;;5049442;28;20787;-61
2021/06/12 11:55:21;;;;;;;4.47;2.35;;;26.20;48.40;;;;;;5049991;28;20074;-60
2021/06/12 11:57:50;;;;;;;2.40;2.10;;;26.20;48.40;;;;;;5054715;28;20051;-59
2021/06/12 12:00:38;;;;;;;2.75;2.35;;;26.20;48.40;;;;;;5054948;28;20016;-61
2021/06/12 12:03:12;;;;;;;2.40;2.00;;;26.20;48.40;;;;;;5062349;28;20367;-59
2021/06/12 12:05:50;;;;;;;2.25;1.98;;;26.20;48.30;;;;;;5054486;28;20032;-60
2021/06/12 12:08:18;;;;;;;2.58;2.05;;;26.20;48.30;;;;;;5057507;28;20427;-59
2021/06/12 12:10:49;;;;;;;3.00;2.30;;;26.20;48.30;;;;;;5058982;28;20025;-59
2021/06/12 12:13:36;;;;;;;2.90;2.20;;;26.20;48.30;;;;;;5048450;28;20116;-60
2021/06/12 12:16:17;;;;;;;2.80;2.28;;;26.20;48.30;;;;;;5050765;28;20079;-61
2021/06/12 12:18:54;;;;;;;2.47;2.15;;;26.20;48.30;;;;;;5061715;28;20124;-60
2021/06/12 12:21:41;;;;;;;2.90;2.10;;;26.20;48.30;;;;;;5044784;28;20846;-60
2021/06/12 12:24:10;;;;;;;2.55;2.22;;;26.20;48.40;;;;;;5055854;28;20031;-60
2021/06/12 12:26:37;;;;;;;2.78;2.13;;;26.20;48.30;;;;;;5044916;28;20025;-60
2021/06/12 12:29:09;;;;;;;3.05;2.35;;;26.20;48.30;;;;;;5054459;28;20368;-59
2021/06/12 12:31:42;;;;;;;3.72;2.15;;;26.20;48.30;;;;;;5047372;28;20191;-60
2021/06/12 12:34:08;;;;;;;2.50;2.10;;;26.30;48.40;;;;;;5060545;28;20089;-61
2021/06/12 12:36:44;;;;;;;2.45;2.05;;;26.30;48.40;;;;;;5059894;28;20409;-60
2021/06/12 12:39:11;;;;;;;2.58;2.03;;;26.20;48.30;;;;;;5055056;28;20074;-59
2021/06/12 12:41:37;;;;;;;2.60;1.90;;;26.30;48.30;;;;;;5051330;28;20028;-59
2021/06/12 12:44:13;;;;;;;3.55;2.20;;;26.30;48.30;;;;;;5060392;28;20060;-59
2021/06/12 12:46:42;;;;;;;2.70;2.00;;;26.30;48.90;;;;;;5060254;28;20363;-60
2021/06/12 12:49:14;;;;;;;2.70;2.10;;;26.30;48.40;;;;;;5057539;28;20037;-62
2021/06/12 12:51:59;;;;;;;2.75;2.28;;;26.30;48.40;;;;;;5051601;28;20386;-61
2021/06/12 12:54:27;;;;;;;2.60;2.10;;;26.30;48.90;;;;;;5061164;28;20030;-60